MaSS Merit — 3FNT3 — position and weather

sailwx.info

Track history (hours):
 
Tides and Currents Weather Stations Pressure Air Temp Water Temp Dewpoint Dewpoint Depression Visibility Wind Speed Wind Dir Waves Ship Positions

MaSS Merit

Last reported at 2018-Jul-18 22:31 UTC. Time now 2018-Jul-20 23:38 UTC.
Position N 30°59' E 122°34'.

Length 189 m; draft 6.1 m.

Type: Cargo ship. MMSI: 355599000.

Date/timePositionNaut miles runAvg speedWind from/ knotsBaromVisibWave heightAir tempDewpointWater temp
2018-Jul-18 22:31N 30°59' E 122°34'314.8
2018-Jul-18 22:20N 30°59' E 122°31'515.0
2018-Jul-18 22:00N 31°01' E 122°25'714.5
2018-Jul-18 21:31N 31°02' E 122°17'612.1
2018-Jul-18 21:00N 31°03' E 122°10'713.5
2018-Jul-18 20:30N 31°04' E 122°02'611.8
2018-Jul-18 20:00N 31°07' E 121°56'510.3
2018-Jul-18 19:29N 31°10' E 121°51'5 9.5
2018-Jul-18 19:00N 31°14' E 121°48'  
2018-Jul-14 05:30N 31°16' E 121°55'19 9.0
2018-Jul-14 03:21N 31°08' E 122°16'17 9.1
2018-Jul-14 01:30N 31°07' E 122°35'  
Track history (hours):
 
Tides and Currents Weather Stations Pressure Air Temp Water Temp Dewpoint Dewpoint Depression Visibility Wind Speed Wind Dir Waves Ship Positions

MaSS Merit

Last reported at 2018-Jul-18 22:31 UTC. Time now 2018-Jul-20 23:38 UTC.
Position N 30°59' E 122°34'.

Length 189 m; draft 6.1 m.

Type: Cargo ship. MMSI: 355599000.

Date/timePositionNaut miles runAvg speedWind from/ knotsBaromVisibWave heightAir tempDewpointWater temp
2018-Jul-18 22:31N 30°59' E 122°34'314.8
2018-Jul-18 22:20N 30°59' E 122°31'515.0
2018-Jul-18 22:00N 31°01' E 122°25'714.5
2018-Jul-18 21:31N 31°02' E 122°17'612.1
2018-Jul-18 21:00N 31°03' E 122°10'713.5
2018-Jul-18 20:30N 31°04' E 122°02'611.8
2018-Jul-18 20:00N 31°07' E 121°56'510.3
2018-Jul-18 19:29N 31°10' E 121°51'5 9.5
2018-Jul-18 19:00N 31°14' E 121°48'  
2018-Jul-14 05:30N 31°16' E 121°55'19 9.0
2018-Jul-14 03:21N 31°08' E 122°16'17 9.1
2018-Jul-14 01:30N 31°07' E 122°35'  

Dump ship's entire track history